sensor_id;sensor_type;location;lat;lon;timestamp;pressure;altitude;pressure_sealevel;temperature;humidity
72570;BME280;60594;50.204;8.844;2023-12-20T00:01:01;99959.88;;;4.04;100.00
72570;BME280;60594;50.204;8.844;2023-12-20T00:03:40;99957.88;;;4.08;100.00
72570;BME280;60594;50.204;8.844;2023-12-20T00:06:07;99953.28;;;4.11;100.00
72570;BME280;60594;50.204;8.844;2023-12-20T00:08:33;99958.06;;;4.05;100.00
72570;BME280;60594;50.204;8.844;2023-12-20T00:11:00;99942.16;;;4.06;100.00
72570;BME280;60594;50.204;8.844;2023-12-20T00:13:26;99943.00;;;4.07;100.00
72570;BME280;60594;50.204;8.844;2023-12-20T00:15:53;99946.69;;;4.04;100.00
72570;BME280;60594;50.204;8.844;2023-12-20T00:18:19;99942.72;;;4.11;100.00
72570;BME280;60594;50.204;8.844;2023-12-20T00:20:46;99941.03;;;4.10;100.00
72570;BME280;60594;50.204;8.844;2023-12-20T00:23:12;99931.53;;;4.08;100.00
72570;BME280;60594;50.204;8.844;2023-12-20T00:25:39;99937.44;;;4.11;100.00
72570;BME280;60594;50.204;8.844;2023-12-20T00:28:05;99938.31;;;4.12;100.00
72570;BME280;60594;50.204;8.844;2023-12-20T00:30:32;99934.31;;;4.05;100.00
72570;BME280;60594;50.204;8.844;2023-12-20T00:32:58;99927.84;;;4.10;100.00
72570;BME280;60594;50.204;8.844;2023-12-20T00:35:25;99916.72;;;4.05;100.00
72570;BME280;60594;50.204;8.844;2023-12-20T00:37:51;99919.38;;;4.05;100.00
72570;BME280;60594;50.204;8.844;2023-12-20T00:40:18;99918.41;;;4.06;100.00
72570;BME280;60594;50.204;8.844;2023-12-20T00:42:44;99924.56;;;4.07;100.00
72570;BME280;60594;50.204;8.844;2023-12-20T00:45:13;99921.53;;;3.99;100.00
72570;BME280;60594;50.204;8.844;2023-12-20T00:47:40;99926.59;;;4.02;100.00
72570;BME280;60594;50.204;8.844;2023-12-20T00:50:07;99923.13;;;4.01;100.00
72570;BME280;60594;50.204;8.844;2023-12-20T00:52:34;99930.94;;;4.03;100.00
72570;BME280;60594;50.204;8.844;2023-12-20T00:55:00;99928.47;;;4.00;100.00
72570;BME280;60594;50.204;8.844;2023-12-20T00:57:27;99923.78;;;4.05;100.00
72570;BME280;60594;50.204;8.844;2023-12-20T00:59:53;99931.44;;;4.09;100.00
72570;BME280;60594;50.204;8.844;2023-12-20T01:02:20;99915.44;;;4.12;100.00
72570;BME280;60594;50.204;8.844;2023-12-20T01:04:46;99931.78;;;4.03;100.00
72570;BME280;60594;50.204;8.844;2023-12-20T01:07:13;99918.50;;;4.05;100.00
72570;BME280;60594;50.204;8.844;2023-12-20T01:09:39;99906.84;;;4.09;100.00
72570;BME280;60594;50.204;8.844;2023-12-20T01:12:06;99911.00;;;4.13;100.00
72570;BME280;60594;50.204;8.844;2023-12-20T01:14:32;99913.63;;;4.13;100.00
72570;BME280;60594;50.204;8.844;2023-12-20T01:16:59;99915.44;;;4.12;100.00
72570;BME280;60594;50.204;8.844;2023-12-20T01:19:25;99902.50;;;4.08;100.00
72570;BME280;60594;50.204;8.844;2023-12-20T01:21:53;99905.06;;;4.09;100.00
72570;BME280;60594;50.204;8.844;2023-12-20T01:24:19;99906.09;;;4.07;100.00
72570;BME280;60594;50.204;8.844;2023-12-20T01:26:46;99902.78;;;4.03;100.00
72570;BME280;60594;50.204;8.844;2023-12-20T01:29:12;99902.69;;;4.05;100.00
72570;BME280;60594;50.204;8.844;2023-12-20T01:31:40;99899.41;;;4.01;100.00
72570;BME280;60594;50.204;8.844;2023-12-20T01:34:06;99890.00;;;4.11;100.00
72570;BME280;60594;50.204;8.844;2023-12-20T01:36:33;99892.06;;;4.06;100.00
72570;BME280;60594;50.204;8.844;2023-12-20T01:38:59;99900.44;;;3.99;100.00
72570;BME280;60594;50.204;8.844;2023-12-20T01:41:26;99895.16;;;3.99;100.00
72570;BME280;60594;50.204;8.844;2023-12-20T01:43:52;99892.53;;;3.99;100.00
72570;BME280;60594;50.204;8.844;2023-12-20T01:46:20;99895.75;;;3.88;100.00
72570;BME280;60594;50.204;8.844;2023-12-20T01:48:48;99892.88;;;3.93;100.00
72570;BME280;60594;50.204;8.844;2023-12-20T01:51:15;99901.09;;;4.02;100.00
72570;BME280;60594;50.204;8.844;2023-12-20T01:53:42;99896.28;;;4.09;100.00
72570;BME280;60594;50.204;8.844;2023-12-20T01:56:09;99903.47;;;4.07;100.00
72570;BME280;60594;50.204;8.844;2023-12-20T01:58:39;99900.22;;;4.02;100.00
72570;BME280;60594;50.204;8.844;2023-12-20T02:01:08;99903.91;;;3.99;100.00
72570;BME280;60594;50.204;8.844;2023-12-20T02:03:34;99907.47;;;3.98;100.00
72570;BME280;60594;50.204;8.844;2023-12-20T02:06:04;99921.53;;;3.99;100.00
72570;BME280;60594;50.204;8.844;2023-12-20T02:08:31;99924.56;;;4.07;100.00
72570;BME280;60594;50.204;8.844;2023-12-20T02:10:58;99930.09;;;4.02;100.00
72570;BME280;60594;50.204;8.844;2023-12-20T02:13:24;99909.47;;;4.09;100.00
72570;BME280;60594;50.204;8.844;2023-12-20T02:15:54;99903.38;;;4.08;100.00
72570;BME280;60594;50.204;8.844;2023-12-20T02:18:21;99894.13;;;4.01;100.00
72570;BME280;60594;50.204;8.844;2023-12-20T02:20:48;99892.53;;;3.99;100.00
72570;BME280;60594;50.204;8.844;2023-12-20T02:23:14;99914.09;;;4.05;100.00
72570;BME280;60594;50.204;8.844;2023-12-20T02:25:41;99909.78;;;4.04;100.00
72570;BME280;60594;50.204;8.844;2023-12-20T02:28:07;99894.88;;;4.03;100.00
72570;BME280;60594;50.204;8.844;2023-12-20T02:30:34;99889.59;;;4.03;100.00
72570;BME280;60594;50.204;8.844;2023-12-20T02:33:01;99880.09;;;4.01;100.00
72570;BME280;60594;50.204;8.844;2023-12-20T02:35:27;99888.16;;;3.98;100.00
72570;BME280;60594;50.204;8.844;2023-12-20T02:37:54;99895.25;;;3.97;100.00
72570;BME280;60594;50.204;8.844;2023-12-20T02:40:20;99891.66;;;3.98;100.00
72570;BME280;60594;50.204;8.844;2023-12-20T02:42:46;99892.88;;;3.93;100.00
72570;BME280;60594;50.204;8.844;2023-12-20T02:45:13;99899.66;;;3.97;100.00
72570;BME280;60594;50.204;8.844;2023-12-20T02:47:40;99905.09;;;3.94;100.00
72570;BME280;60594;50.204;8.844;2023-12-20T02:50:07;99894.22;;;4.00;100.00
72570;BME280;60594;50.204;8.844;2023-12-20T02:52:33;99890.47;;;4.04;100.00
72570;BME280;60594;50.204;8.844;2023-12-20T02:55:00;99904.38;;;4.06;100.00
72570;BME280;60594;50.204;8.844;2023-12-20T02:57:26;99885.94;;;4.06;100.00
72570;BME280;60594;50.204;8.844;2023-12-20T02:59:53;99896.47;;;4.06;100.00
72570;BME280;60594;50.204;8.844;2023-12-20T03:02:19;99892.38;;;4.16;100.00
72570;BME280;60594;50.204;8.844;2023-12-20T03:04:46;99900.66;;;4.24;100.00
72570;BME280;60594;50.204;8.844;2023-12-20T03:07:12;99903.50;;;4.21;100.00
72570;BME280;60594;50.204;8.844;2023-12-20T03:09:39;99890.84;;;4.12;100.00
72570;BME280;60594;50.204;8.844;2023-12-20T03:12:05;99894.53;;;4.09;100.00
72570;BME280;60594;50.204;8.844;2023-12-20T03:14:31;99896.38;;;4.07;100.00
72570;BME280;60594;50.204;8.844;2023-12-20T03:16:58;99884.53;;;4.14;100.00
72570;BME280;60594;50.204;8.844;2023-12-20T03:19:24;99886.66;;;4.23;100.00
72570;BME280;60594;50.204;8.844;2023-12-20T03:21:51;99888.50;;;4.21;100.00
72570;BME280;60594;50.204;8.844;2023-12-20T03:24:19;99898.88;;;4.24;100.00
72570;BME280;60594;50.204;8.844;2023-12-20T03:26:45;99898.88;;;4.24;100.00
72570;BME280;60594;50.204;8.844;2023-12-20T03:29:12;99905.69;;;4.28;100.00
72570;BME280;60594;50.204;8.844;2023-12-20T03:31:38;99917.25;;;4.26;100.00
72570;BME280;60594;50.204;8.844;2023-12-20T03:34:05;99924.06;;;4.30;100.00
72570;BME280;60594;50.204;8.844;2023-12-20T03:36:31;99909.91;;;4.31;100.00
72570;BME280;60594;50.204;8.844;2023-12-20T03:38:58;99915.88;;;4.34;100.00
72570;BME280;60594;50.204;8.844;2023-12-20T03:41:24;99927.25;;;4.35;100.00
72570;BME280;60594;50.204;8.844;2023-12-20T03:43:51;99925.66;;;4.32;100.00
72570;BME280;60594;50.204;8.844;2023-12-20T03:46:17;99928.19;;;4.34;100.00
72570;BME280;60594;50.204;8.844;2023-12-20T03:48:44;99941.03;;;4.40;100.00
72570;BME280;60594;50.204;8.844;2023-12-20T03:51:10;99941.13;;;4.38;100.00
72570;BME280;60594;50.204;8.844;2023-12-20T03:53:37;99943.69;;;4.40;100.00
72570;BME280;60594;50.204;8.844;2023-12-20T03:56:03;99941.03;;;4.40;100.00
72570;BME280;60594;50.204;8.844;2023-12-20T03:58:30;99939.06;;;4.43;100.00
72570;BME280;60594;50.204;8.844;2023-12-20T04:00:56;99938.19;;;4.43;100.00
72570;BME280;60594;50.204;8.844;2023-12-20T04:03:23;99938.97;;;4.45;100.00
72570;BME280;60594;50.204;8.844;2023-12-20T04:05:49;99930.09;;;4.46;100.00
72570;BME280;60594;50.204;8.844;2023-12-20T04:08:15;99935.38;;;4.46;100.00
72570;BME280;60594;50.204;8.844;2023-12-20T04:10:42;99945.09;;;4.45;100.00
72570;BME280;60594;50.204;8.844;2023-12-20T04:13:08;99940.66;;;4.46;100.00
72570;BME280;60594;50.204;8.844;2023-12-20T04:15:35;99942.06;;;4.51;100.00
72570;BME280;60594;50.204;8.844;2023-12-20T04:18:01;99934.94;;;4.53;100.00
72570;BME280;60594;50.204;8.844;2023-12-20T04:20:28;99942.06;;;4.51;100.00
72570;BME280;60594;50.204;8.844;2023-12-20T04:22:54;99943.59;;;4.55;100.00
72570;BME280;60594;50.204;8.844;2023-12-20T04:25:20;99951.25;;;4.60;100.00
72570;BME280;60594;50.204;8.844;2023-12-20T04:27:47;99954.19;;;4.69;100.00
72570;BME280;60594;50.204;8.844;2023-12-20T04:30:13;99960.50;;;4.67;100.00
72570;BME280;60594;50.204;8.844;2023-12-20T04:32:40;99943.88;;;4.65;100.00
72570;BME280;60594;50.204;8.844;2023-12-20T04:35:06;99947.94;;;4.56;100.00
72570;BME280;60594;50.204;8.844;2023-12-20T04:37:34;99944.19;;;4.60;100.00
72570;BME280;60594;50.204;8.844;2023-12-20T04:40:01;99948.59;;;4.60;100.00
72570;BME280;60594;50.204;8.844;2023-12-20T04:42:28;99953.03;;;4.59;100.00
72570;BME280;60594;50.204;8.844;2023-12-20T04:44:55;99962.28;;;4.66;100.00
72570;BME280;60594;50.204;8.844;2023-12-20T04:47:21;99969.38;;;4.80;100.00
72570;BME280;60594;50.204;8.844;2023-12-20T04:49:48;99967.41;;;4.83;100.00
72570;BME280;60594;50.204;8.844;2023-12-20T04:52:15;99971.53;;;4.87;100.00
72570;BME280;60594;50.204;8.844;2023-12-20T04:54:41;99967.22;;;4.86;100.00
72570;BME280;60594;50.204;8.844;2023-12-20T04:57:07;99972.75;;;4.82;100.00
72570;BME280;60594;50.204;8.844;2023-12-20T04:59:34;99965.97;;;4.78;100.00
72570;BME280;60594;50.204;8.844;2023-12-20T05:02:00;99970.38;;;4.77;100.00
72570;BME280;60594;50.204;8.844;2023-12-20T05:04:27;99978.56;;;4.59;100.00
72570;BME280;60594;50.204;8.844;2023-12-20T05:06:53;99973.78;;;4.65;100.00
72570;BME280;60594;50.204;8.844;2023-12-20T05:09:20;99982.56;;;4.66;100.00
72570;BME280;60594;50.204;8.844;2023-12-20T05:11:46;99990.38;;;4.67;100.00
72570;BME280;60594;50.204;8.844;2023-12-20T05:14:12;99995.44;;;4.70;100.00
72570;BME280;60594;50.204;8.844;2023-12-20T05:16:39;100003.28;;;4.72;100.00
72570;BME280;60594;50.204;8.844;2023-12-20T05:19:05;100001.69;;;4.69;100.00
72570;BME280;60594;50.204;8.844;2023-12-20T05:21:33;99995.75;;;4.66;100.00
72570;BME280;60594;50.204;8.844;2023-12-20T05:23:59;100013.28;;;4.67;100.00
72570;BME280;60594;50.204;8.844;2023-12-20T05:26:27;100022.63;;;4.72;100.00
72570;BME280;60594;50.204;8.844;2023-12-20T05:28:53;100020.06;;;4.71;100.00
72570;BME280;60594;50.204;8.844;2023-12-20T05:31:20;100016.47;;;4.72;100.00
72570;BME280;60594;50.204;8.844;2023-12-20T05:33:46;100018.19;;;4.73;100.00
72570;BME280;60594;50.204;8.844;2023-12-20T05:36:12;100031.56;;;4.70;100.00
72570;BME280;60594;50.204;8.844;2023-12-20T05:38:41;100023.47;;;4.73;100.00
72570;BME280;60594;50.204;8.844;2023-12-20T05:41:07;100034.88;;;4.73;100.00
72570;BME280;60594;50.204;8.844;2023-12-20T05:43:34;100026.69;;;4.78;100.00
72570;BME280;60594;50.204;8.844;2023-12-20T05:46:00;100034.44;;;4.81;100.00
72570;BME280;60594;50.204;8.844;2023-12-20T05:48:27;100016.31;;;4.75;100.00
72570;BME280;60594;50.204;8.844;2023-12-20T05:50:54;100010.66;;;4.81;100.00
72570;BME280;60594;50.204;8.844;2023-12-20T05:53:20;100021.88;;;4.84;100.00
72570;BME280;60594;50.204;8.844;2023-12-20T05:55:46;100016.59;;;4.84;100.00
72570;BME280;60594;50.204;8.844;2023-12-20T05:58:13;100023.47;;;4.87;100.00
72570;BME280;60594;50.204;8.844;2023-12-20T06:00:39;100012.53;;;4.79;100.00
72570;BME280;60594;50.204;8.844;2023-12-20T06:03:06;100021.97;;;4.83;100.00
72570;BME280;60594;50.204;8.844;2023-12-20T06:05:32;100020.16;;;4.69;100.00
72570;BME280;60594;50.204;8.844;2023-12-20T06:07:59;100023.91;;;4.65;100.00
72570;BME280;60594;50.204;8.844;2023-12-20T06:10:29;100021.75;;;4.72;100.00
72570;BME280;60594;50.204;8.844;2023-12-20T06:12:55;100036.84;;;4.70;100.00
72570;BME280;60594;50.204;8.844;2023-12-20T06:15:22;100042.31;;;4.67;100.00
72570;BME280;60594;50.204;8.844;2023-12-20T06:17:49;100041.66;;;4.63;100.00
72570;BME280;60594;50.204;8.844;2023-12-20T06:20:16;100050.66;;;4.59;100.00
72570;BME280;60594;50.204;8.844;2023-12-20T06:22:42;100035.63;;;4.46;100.00
72570;BME280;60594;50.204;8.844;2023-12-20T06:25:09;100035.22;;;4.38;100.00
72570;BME280;60594;50.204;8.844;2023-12-20T06:27:35;100034.75;;;4.31;100.00
72570;BME280;60594;50.204;8.844;2023-12-20T06:30:02;100038.25;;;4.32;100.00
72570;BME280;60594;50.204;8.844;2023-12-20T06:32:28;100043.00;;;4.25;100.00
72570;BME280;60594;50.204;8.844;2023-12-20T06:34:55;100043.28;;;4.21;100.00
72570;BME280;60594;50.204;8.844;2023-12-20T06:37:22;100038.41;;;4.13;100.00
72570;BME280;60594;50.204;8.844;2023-12-20T06:39:48;100033.75;;;4.03;100.00
72570;BME280;60594;50.204;8.844;2023-12-20T06:42:15;100034.88;;;3.99;100.00
72570;BME280;60594;50.204;8.844;2023-12-20T06:44:41;100035.22;;;3.93;100.00
72570;BME280;60594;50.204;8.844;2023-12-20T06:47:08;100046.94;;;4.03;100.00
72570;BME280;60594;50.204;8.844;2023-12-20T06:49:34;100043.63;;;3.99;100.00
72570;BME280;60594;50.204;8.844;2023-12-20T06:52:01;100061.66;;;4.07;100.00
72570;BME280;60594;50.204;8.844;2023-12-20T06:54:27;100044.63;;;3.97;100.00
72570;BME280;60594;50.204;8.844;2023-12-20T06:56:54;100047.44;;;3.94;100.00
72570;BME280;60594;50.204;8.844;2023-12-20T06:59:20;100049.91;;;3.97;100.00
72570;BME280;60594;50.204;8.844;2023-12-20T07:01:50;100059.59;;;3.96;100.00
72570;BME280;60594;50.204;8.844;2023-12-20T07:04:16;100051.50;;;3.84;100.00
72570;BME280;60594;50.204;8.844;2023-12-20T07:06:47;100050.59;;;3.69;100.00
72570;BME280;60594;50.204;8.844;2023-12-20T07:09:13;100065.88;;;3.78;100.00
72570;BME280;60594;50.204;8.844;2023-12-20T07:11:40;100068.53;;;3.94;100.00
72570;BME280;60594;50.204;8.844;2023-12-20T07:14:07;100077.31;;;3.94;100.00
72570;BME280;60594;50.204;8.844;2023-12-20T07:16:33;100071.25;;;3.92;100.00
72570;BME280;60594;50.204;8.844;2023-12-20T07:19:01;100084.50;;;3.91;100.00
72570;BME280;60594;50.204;8.844;2023-12-20T07:21:27;100075.78;;;3.90;100.00
72570;BME280;60594;50.204;8.844;2023-12-20T07:23:54;100076.09;;;4.00;100.00
72570;BME280;60594;50.204;8.844;2023-12-20T07:26:20;100072.78;;;3.96;100.00
72570;BME280;60594;50.204;8.844;2023-12-20T07:28:47;100055.59;;;4.05;100.00
72570;BME280;60594;50.204;8.844;2023-12-20T07:31:15;100059.09;;;4.05;100.00
72570;BME280;60594;50.204;8.844;2023-12-20T07:33:42;100069.41;;;4.10;100.00
72570;BME280;60594;50.204;8.844;2023-12-20T07:36:08;100072.69;;;4.13;100.00
72570;BME280;60594;50.204;8.844;2023-12-20T07:38:35;100073.97;;;4.22;100.00
72570;BME280;60594;50.204;8.844;2023-12-20T07:41:01;100074.81;;;4.22;100.00
72570;BME280;60594;50.204;8.844;2023-12-20T07:43:28;100079.91;;;4.25;100.00
72570;BME280;60594;50.204;8.844;2023-12-20T07:45:54;100080.53;;;4.15;100.00
72570;BME280;60594;50.204;8.844;2023-12-20T07:48:21;100075.84;;;4.20;100.00
72570;BME280;60594;50.204;8.844;2023-12-20T07:50:47;100084.44;;;4.23;100.00
72570;BME280;60594;50.204;8.844;2023-12-20T07:53:14;100085.72;;;4.16;100.00
72570;BME280;60594;50.204;8.844;2023-12-20T07:55:40;100086.75;;;4.14;100.00
72570;BME280;60594;50.204;8.844;2023-12-20T07:58:06;100087.66;;;4.13;100.00
72570;BME280;60594;50.204;8.844;2023-12-20T08:00:33;100089.53;;;4.11;100.00
72570;BME280;60594;50.204;8.844;2023-12-20T08:02:59;100094.75;;;4.12;100.00
72570;BME280;60594;50.204;8.844;2023-12-20T08:05:29;100091.25;;;4.12;100.00
72570;BME280;60594;50.204;8.844;2023-12-20T08:07:56;100097.28;;;4.14;100.00
72570;BME280;60594;50.204;8.844;2023-12-20T08:10:22;100087.66;;;4.13;100.00
72570;BME280;60594;50.204;8.844;2023-12-20T08:12:49;100100.69;;;4.16;100.00
72570;BME280;60594;50.204;8.844;2023-12-20T08:15:15;100110.56;;;4.12;100.00
72570;BME280;60594;50.204;8.844;2023-12-20T08:17:42;100104.59;;;4.09;100.00
72570;BME280;60594;50.204;8.844;2023-12-20T08:20:08;100104.66;;;4.07;100.00
72570;BME280;60594;50.204;8.844;2023-12-20T08:22:35;100103.94;;;4.21;100.00
72570;BME280;60594;50.204;8.844;2023-12-20T08:25:01;100108.44;;;4.19;100.00
72570;BME280;60594;50.204;8.844;2023-12-20T08:27:28;100106.03;;;4.14;100.00
72570;BME280;60594;50.204;8.844;2023-12-20T08:29:54;100103.66;;;4.25;100.00
72570;BME280;60594;50.204;8.844;2023-12-20T08:32:21;100102.91;;;4.23;100.00
72570;BME280;60594;50.204;8.844;2023-12-20T08:34:48;100104.75;;;4.21;100.00
72570;BME280;60594;50.204;8.844;2023-12-20T08:37:14;100099.81;;;4.31;100.00
72570;BME280;60594;50.204;8.844;2023-12-20T08:39:41;100104.19;;;4.32;100.00
72570;BME280;60594;50.204;8.844;2023-12-20T08:42:07;100109.34;;;4.33;100.00
72570;BME280;60594;50.204;8.844;2023-12-20T08:44:34;100113.78;;;4.33;100.00
72570;BME280;60594;50.204;8.844;2023-12-20T08:47:00;100113.69;;;4.34;100.00
72570;BME280;60594;50.204;8.844;2023-12-20T08:49:27;100114.63;;;4.33;100.00
72570;BME280;60594;50.204;8.844;2023-12-20T08:51:54;100112.84;;;4.34;100.00
72570;BME280;60594;50.204;8.844;2023-12-20T08:54:20;100111.91;;;4.35;100.00
72570;BME280;60594;50.204;8.844;2023-12-20T08:56:47;100110.13;;;4.35;100.00
72570;BME280;60594;50.204;8.844;2023-12-20T08:59:13;100101.00;;;4.41;100.00
72570;BME280;60594;50.204;8.844;2023-12-20T09:01:40;100104.91;;;4.49;100.00
72570;BME280;60594;50.204;8.844;2023-12-20T09:04:07;100115.09;;;4.55;100.00
72570;BME280;60594;50.204;8.844;2023-12-20T09:06:33;100106.19;;;4.58;100.00
72570;BME280;60594;50.204;8.844;2023-12-20T09:09:00;100110.06;;;4.66;100.00
72570;BME280;60594;50.204;8.844;2023-12-20T09:11:27;100104.69;;;4.68;100.00
72570;BME280;60594;50.204;8.844;2023-12-20T09:13:53;100115.84;;;4.73;100.00
72570;BME280;60594;50.204;8.844;2023-12-20T09:16:19;100108.50;;;4.78;100.00
72570;BME280;60594;50.204;8.844;2023-12-20T09:18:46;100114.28;;;4.84;100.00
72570;BME280;60594;50.204;8.844;2023-12-20T09:21:13;100113.84;;;4.92;100.00
72570;BME280;60594;50.204;8.844;2023-12-20T09:23:39;100106.50;;;4.97;100.00
72570;BME280;60594;50.204;8.844;2023-12-20T09:26:06;100106.59;;;4.95;100.00
72570;BME280;60594;50.204;8.844;2023-12-20T09:28:32;100107.28;;;4.99;100.00
72570;BME280;60594;50.204;8.844;2023-12-20T09:31:04;100107.84;;;5.04;100.00
72570;BME280;60594;50.204;8.844;2023-12-20T09:33:31;100109.53;;;5.05;100.00
72570;BME280;60594;50.204;8.844;2023-12-20T09:35:58;100114.25;;;5.00;100.00
72570;BME280;60594;50.204;8.844;2023-12-20T09:38:24;100115.78;;;4.88;100.00
72570;BME280;60594;50.204;8.844;2023-12-20T09:40:51;100112.25;;;4.89;100.00
72570;BME280;60594;50.204;8.844;2023-12-20T09:43:19;100121.38;;;4.84;100.00
72570;BME280;60594;50.204;8.844;2023-12-20T09:45:47;100123.22;;;4.82;100.00
72570;BME280;60594;50.204;8.844;2023-12-20T09:48:17;100122.19;;;4.84;100.00
72570;BME280;60594;50.204;8.844;2023-12-20T09:50:44;100133.63;;;4.85;100.00
72570;BME280;60594;50.204;8.844;2023-12-20T09:53:15;100141.44;;;4.86;100.00
72570;BME280;60594;50.204;8.844;2023-12-20T09:55:42;100129.78;;;4.90;100.00
72570;BME280;60594;50.204;8.844;2023-12-20T09:58:08;100137.78;;;4.89;100.00
72570;BME280;60594;50.204;8.844;2023-12-20T10:00:35;100130.44;;;4.94;100.00
72570;BME280;60594;50.204;8.844;2023-12-20T10:03:01;100133.66;;;4.99;100.00
72570;BME280;60594;50.204;8.844;2023-12-20T10:05:33;100121.50;;;4.96;100.00
72570;BME280;60594;50.204;8.844;2023-12-20T10:08:00;100119.69;;;4.97;100.00
72570;BME280;60594;50.204;8.844;2023-12-20T10:10:27;100124.97;;;4.97;100.00
72570;BME280;60594;50.204;8.844;2023-12-20T10:13:04;100106.41;;;4.98;100.00
72570;BME280;60594;50.204;8.844;2023-12-20T10:15:33;100104.72;;;4.97;100.00
72570;BME280;60594;50.204;8.844;2023-12-20T10:18:00;100103.13;;;5.09;100.00
72570;BME280;60594;50.204;8.844;2023-12-20T10:20:28;100104.53;;;5.14;100.00
72570;BME280;60594;50.204;8.844;2023-12-20T10:22:58;100093.81;;;5.17;100.00
72570;BME280;60594;50.204;8.844;2023-12-20T10:25:26;100084.19;;;5.16;100.00
72570;BME280;60594;50.204;8.844;2023-12-20T10:28:15;100097.97;;;5.21;100.00
72570;BME280;60594;50.204;8.844;2023-12-20T10:30:45;100086.91;;;5.15;100.00
72570;BME280;60594;50.204;8.844;2023-12-20T10:33:11;100076.25;;;5.16;100.00
72570;BME280;60594;50.204;8.844;2023-12-20T10:35:39;100073.72;;;5.15;100.00
72570;BME280;60594;50.204;8.844;2023-12-20T10:38:06;100066.66;;;5.15;100.00
72570;BME280;60594;50.204;8.844;2023-12-20T10:40:36;100057.13;;;5.13;100.00
72570;BME280;60594;50.204;8.844;2023-12-20T10:43:05;100053.34;;;5.17;100.00
72570;BME280;60594;50.204;8.844;2023-12-20T10:45:32;100056.06;;;5.29;100.00
72570;BME280;60594;50.204;8.844;2023-12-20T10:47:59;100045.41;;;5.45;100.00
72570;BME280;60594;50.204;8.844;2023-12-20T10:50:27;100038.25;;;5.47;100.00
72570;BME280;60594;50.204;8.844;2023-12-20T10:52:55;100046.28;;;5.59;100.00
72570;BME280;60594;50.204;8.844;2023-12-20T10:55:22;100042.97;;;5.70;100.00
72570;BME280;60594;50.204;8.844;2023-12-20T10:58:11;100041.94;;;5.86;100.00
72570;BME280;60594;50.204;8.844;2023-12-20T11:00:39;100042.94;;;5.98;100.00
72570;BME280;60594;50.204;8.844;2023-12-20T11:03:10;100039.09;;;6.16;100.00
72570;BME280;60594;50.204;8.844;2023-12-20T11:05:46;100029.44;;;6.29;100.00
72570;BME280;60594;50.204;8.844;2023-12-20T11:11:29;100030.78;;;6.48;100.00
72570;BME280;60594;50.204;8.844;2023-12-20T11:14:22;100031.72;;;6.47;100.00
72570;BME280;60594;50.204;8.844;2023-12-20T11:16:50;100038.03;;;6.45;100.00
72570;BME280;60594;50.204;8.844;2023-12-20T11:19:17;100024.06;;;6.43;100.00
72570;BME280;60594;50.204;8.844;2023-12-20T11:21:45;100039.16;;;6.28;100.00
72570;BME280;60594;50.204;8.844;2023-12-20T11:24:12;100044.44;;;6.28;100.00
72570;BME280;60594;50.204;8.844;2023-12-20T11:26:46;100039.06;;;6.30;100.00
72570;BME280;60594;50.204;8.844;2023-12-20T11:29:33;100043.03;;;6.23;100.00
72570;BME280;60594;50.204;8.844;2023-12-20T11:32:04;100045.06;;;6.19;100.00
72570;BME280;60594;50.204;8.844;2023-12-20T11:34:51;100046.66;;;6.22;100.00
72570;BME280;60594;50.204;8.844;2023-12-20T11:37:20;100040.63;;;6.20;100.00
72570;BME280;60594;50.204;8.844;2023-12-20T11:40:00;100044.88;;;6.22;100.00
72570;BME280;60594;50.204;8.844;2023-12-20T11:42:33;100036.16;;;6.20;100.00
72570;BME280;60594;50.204;8.844;2023-12-20T11:44:59;100014.91;;;6.22;100.00
72570;BME280;60594;50.204;8.844;2023-12-20T11:47:26;100023.50;;;6.25;100.00
72570;BME280;60594;50.204;8.844;2023-12-20T11:49:52;100024.22;;;6.27;100.00
72570;BME280;60594;50.204;8.844;2023-12-20T11:52:19;100016.09;;;6.30;98.99
72570;BME280;60594;50.204;8.844;2023-12-20T11:54:46;100022.25;;;6.31;99.85
72570;BME280;60594;50.204;8.844;2023-12-20T11:57:14;100034.31;;;6.35;100.00
72570;BME280;60594;50.204;8.844;2023-12-20T11:59:40;100030.72;;;6.36;98.33
72570;BME280;60594;50.204;8.844;2023-12-20T12:02:07;100026.06;;;6.39;97.47
72570;BME280;60594;50.204;8.844;2023-12-20T12:04:34;100024.81;;;6.45;96.21
72570;BME280;60594;50.204;8.844;2023-12-20T12:07:00;100019.41;;;6.46;95.92
72570;BME280;60594;50.204;8.844;2023-12-20T12:09:27;100019.50;;;6.45;96.24
72570;BME280;60594;50.204;8.844;2023-12-20T12:11:53;100010.03;;;6.55;95.96
72570;BME280;60594;50.204;8.844;2023-12-20T12:14:20;100017.09;;;6.54;95.71
72570;BME280;60594;50.204;8.844;2023-12-20T12:16:47;100009.53;;;6.62;95.19
72570;BME280;60594;50.204;8.844;2023-12-20T12:19:21;100006.22;;;6.59;93.69
72570;BME280;60594;50.204;8.844;2023-12-20T12:21:47;100003.78;;;6.68;92.49
72570;BME280;60594;50.204;8.844;2023-12-20T12:24:14;100004.88;;;6.78;90.73
72570;BME280;60594;50.204;8.844;2023-12-20T12:26:40;100010.91;;;6.93;90.28
72570;BME280;60594;50.204;8.844;2023-12-20T12:29:07;100005.22;;;6.99;89.61
72570;BME280;60594;50.204;8.844;2023-12-20T12:31:34;99997.88;;;7.02;89.57
72570;BME280;60594;50.204;8.844;2023-12-20T12:34:01;100005.31;;;7.10;88.07
72570;BME280;60594;50.204;8.844;2023-12-20T12:36:28;99999.06;;;7.11;88.00
72570;BME280;60594;50.204;8.844;2023-12-20T12:38:56;99995.34;;;7.13;85.74
72570;BME280;60594;50.204;8.844;2023-12-20T12:41:24;99990.59;;;7.19;86.92
72570;BME280;60594;50.204;8.844;2023-12-20T12:43:50;99989.13;;;7.15;87.72
72570;BME280;60594;50.204;8.844;2023-12-20T12:46:16;99987.84;;;7.07;87.42
72570;BME280;60594;50.204;8.844;2023-12-20T12:48:43;99985.72;;;7.13;86.89
72570;BME280;60594;50.204;8.844;2023-12-20T12:51:10;99987.84;;;7.07;87.80
72570;BME280;60594;50.204;8.844;2023-12-20T12:53:39;99975.97;;;7.00;86.49
72570;BME280;60594;50.204;8.844;2023-12-20T12:56:06;99970.13;;;7.08;85.43
72570;BME280;60594;50.204;8.844;2023-12-20T12:58:33;99958.16;;;7.02;87.26